sensor_id;sensor_type;location;lat;lon;timestamp;temperature;humidity
51011;DHT22;37038;50.182;8.624;2024-03-08T00:01:51;4.10;1.00
51011;DHT22;37038;50.182;8.624;2024-03-08T00:05:29;4.00;99.90
51011;DHT22;37038;50.182;8.624;2024-03-08T00:08:50;3.90;1.00
51011;DHT22;37038;50.182;8.624;2024-03-08T00:12:06;3.90;1.00
51011;DHT22;37038;50.182;8.624;2024-03-08T00:18:59;3.80;1.00
51011;DHT22;37038;50.182;8.624;2024-03-08T00:21:47;3.70;1.00
51011;DHT22;37038;50.182;8.624;2024-03-08T00:24:38;3.40;99.90
51011;DHT22;37038;50.182;8.624;2024-03-08T00:27:28;3.30;1.00
51011;DHT22;37038;50.182;8.624;2024-03-08T00:30:33;3.20;1.00
51011;DHT22;37038;50.182;8.624;2024-03-08T00:33:27;3.30;4.50
51011;DHT22;37038;50.182;8.624;2024-03-08T00:36:18;3.20;1.00
51011;DHT22;37038;50.182;8.624;2024-03-08T00:39:12;3.20;1.00
51011;DHT22;37038;50.182;8.624;2024-03-08T00:42:09;3.10;12.70
51011;DHT22;37038;50.182;8.624;2024-03-08T00:45:09;3.20;1.00
51011;DHT22;37038;50.182;8.624;2024-03-08T00:48:13;3.00;1.00
51011;DHT22;37038;50.182;8.624;2024-03-08T00:51:02;3.00;1.00
51011;DHT22;37038;50.182;8.624;2024-03-08T00:53:54;3.10;99.90
51011;DHT22;37038;50.182;8.624;2024-03-08T00:57:00;3.00;99.90
51011;DHT22;37038;50.182;8.624;2024-03-08T01:00:05;3.00;99.90
51011;DHT22;37038;50.182;8.624;2024-03-08T01:03:00;3.00;99.90
51011;DHT22;37038;50.182;8.624;2024-03-08T01:05:54;3.00;99.90
51011;DHT22;37038;50.182;8.624;2024-03-08T01:08:44;2.90;1.00
51011;DHT22;37038;50.182;8.624;2024-03-08T01:11:35;2.90;1.00
51011;DHT22;37038;50.182;8.624;2024-03-08T01:14:25;2.80;1.00
51011;DHT22;37038;50.182;8.624;2024-03-08T01:17:22;2.80;99.90
51011;DHT22;37038;50.182;8.624;2024-03-08T01:20:18;2.80;47.40
51011;DHT22;37038;50.182;8.624;2024-03-08T01:23:06;2.70;1.00
51011;DHT22;37038;50.182;8.624;2024-03-08T01:25:59;2.70;99.90
51011;DHT22;37038;50.182;8.624;2024-03-08T01:28:50;2.70;99.90
51011;DHT22;37038;50.182;8.624;2024-03-08T01:31:43;2.60;1.00
51011;DHT22;37038;50.182;8.624;2024-03-08T01:34:35;2.60;99.90
51011;DHT22;37038;50.182;8.624;2024-03-08T01:37:30;2.60;1.00
51011;DHT22;37038;50.182;8.624;2024-03-08T01:40:21;2.60;8.70
51011;DHT22;37038;50.182;8.624;2024-03-08T01:43:27;2.60;99.90
51011;DHT22;37038;50.182;8.624;2024-03-08T01:46:20;2.60;99.90
51011;DHT22;37038;50.182;8.624;2024-03-08T01:49:12;2.60;70.90
51011;DHT22;37038;50.182;8.624;2024-03-08T01:51:52;2.60;99.90
51011;DHT22;37038;50.182;8.624;2024-03-08T01:54:40;2.70;99.90
51011;DHT22;37038;50.182;8.624;2024-03-08T01:57:29;2.60;99.90
51011;DHT22;37038;50.182;8.624;2024-03-08T02:00:21;2.60;68.30
51011;DHT22;37038;50.182;8.624;2024-03-08T02:03:11;2.50;1.00
51011;DHT22;37038;50.182;8.624;2024-03-08T02:06:02;2.50;1.00
51011;DHT22;37038;50.182;8.624;2024-03-08T02:08:53;2.50;99.90
51011;DHT22;37038;50.182;8.624;2024-03-08T02:11:41;2.50;1.00
51011;DHT22;37038;50.182;8.624;2024-03-08T02:14:29;2.40;1.00
51011;DHT22;37038;50.182;8.624;2024-03-08T02:17:21;2.40;34.70
51011;DHT22;37038;50.182;8.624;2024-03-08T02:20:14;2.30;99.90
51011;DHT22;37038;50.182;8.624;2024-03-08T02:23:11;2.30;99.90
51011;DHT22;37038;50.182;8.624;2024-03-08T02:26:01;2.30;1.00
51011;DHT22;37038;50.182;8.624;2024-03-08T02:28:51;2.30;1.00
51011;DHT22;37038;50.182;8.624;2024-03-08T02:31:42;2.30;1.00
51011;DHT22;37038;50.182;8.624;2024-03-08T02:34:29;2.30;1.00
51011;DHT22;37038;50.182;8.624;2024-03-08T02:37:24;2.20;99.90
51011;DHT22;37038;50.182;8.624;2024-03-08T02:40:13;2.20;1.00
51011;DHT22;37038;50.182;8.624;2024-03-08T02:43:00;2.20;99.90
51011;DHT22;37038;50.182;8.624;2024-03-08T02:45:48;2.30;1.00
51011;DHT22;37038;50.182;8.624;2024-03-08T02:48:42;2.20;1.00
51011;DHT22;37038;50.182;8.624;2024-03-08T02:51:33;2.20;1.00
51011;DHT22;37038;50.182;8.624;2024-03-08T02:54:25;2.10;1.00
51011;DHT22;37038;50.182;8.624;2024-03-08T02:57:18;2.10;99.90
51011;DHT22;37038;50.182;8.624;2024-03-08T03:00:06;2.10;99.90
51011;DHT22;37038;50.182;8.624;2024-03-08T03:02:59;2.00;1.00
51011;DHT22;37038;50.182;8.624;2024-03-08T03:05:52;2.10;99.90
51011;DHT22;37038;50.182;8.624;2024-03-08T03:08:43;2.10;1.00
51011;DHT22;37038;50.182;8.624;2024-03-08T03:11:36;1.90;3.50
51011;DHT22;37038;50.182;8.624;2024-03-08T03:14:28;1.90;99.90
51011;DHT22;37038;50.182;8.624;2024-03-08T03:17:21;1.90;28.50
51011;DHT22;37038;50.182;8.624;2024-03-08T03:20:09;1.90;1.00
51011;DHT22;37038;50.182;8.624;2024-03-08T03:22:57;1.90;1.00
51011;DHT22;37038;50.182;8.624;2024-03-08T03:25:45;1.90;99.90
51011;DHT22;37038;50.182;8.624;2024-03-08T03:28:36;1.90;99.90
51011;DHT22;37038;50.182;8.624;2024-03-08T03:31:27;1.90;99.90
51011;DHT22;37038;50.182;8.624;2024-03-08T03:34:17;1.90;1.00
51011;DHT22;37038;50.182;8.624;2024-03-08T03:37:07;1.90;1.00
51011;DHT22;37038;50.182;8.624;2024-03-08T03:40:00;1.90;1.00
51011;DHT22;37038;50.182;8.624;2024-03-08T03:42:49;1.80;1.00
51011;DHT22;37038;50.182;8.624;2024-03-08T03:45:39;1.70;1.00
51011;DHT22;37038;50.182;8.624;2024-03-08T03:48:30;1.70;1.00
51011;DHT22;37038;50.182;8.624;2024-03-08T03:51:29;1.80;1.00
51011;DHT22;37038;50.182;8.624;2024-03-08T03:54:22;1.70;99.90
51011;DHT22;37038;50.182;8.624;2024-03-08T03:57:09;1.80;99.90
51011;DHT22;37038;50.182;8.624;2024-03-08T04:00:11;1.80;1.00
51011;DHT22;37038;50.182;8.624;2024-03-08T04:03:18;1.80;97.40
51011;DHT22;37038;50.182;8.624;2024-03-08T04:06:08;1.80;1.00
51011;DHT22;37038;50.182;8.624;2024-03-08T04:08:59;1.70;99.90
51011;DHT22;37038;50.182;8.624;2024-03-08T04:11:48;1.70;1.00
51011;DHT22;37038;50.182;8.624;2024-03-08T04:14:36;1.80;92.50
51011;DHT22;37038;50.182;8.624;2024-03-08T04:17:24;1.70;1.00
51011;DHT22;37038;50.182;8.624;2024-03-08T04:20:14;1.70;1.00
51011;DHT22;37038;50.182;8.624;2024-03-08T04:23:02;1.70;99.90
51011;DHT22;37038;50.182;8.624;2024-03-08T04:25:52;1.70;29.30
51011;DHT22;37038;50.182;8.624;2024-03-08T04:28:42;1.70;99.90
51011;DHT22;37038;50.182;8.624;2024-03-08T04:31:33;1.60;99.90
51011;DHT22;37038;50.182;8.624;2024-03-08T04:34:21;1.60;1.00
51011;DHT22;37038;50.182;8.624;2024-03-08T04:37:09;1.50;1.00
51011;DHT22;37038;50.182;8.624;2024-03-08T04:39:58;1.50;99.90
51011;DHT22;37038;50.182;8.624;2024-03-08T04:42:52;1.50;1.00
51011;DHT22;37038;50.182;8.624;2024-03-08T04:45:40;1.50;99.90
51011;DHT22;37038;50.182;8.624;2024-03-08T04:48:29;1.50;99.90
51011;DHT22;37038;50.182;8.624;2024-03-08T04:51:20;1.50;1.00
51011;DHT22;37038;50.182;8.624;2024-03-08T04:54:10;1.40;99.90
51011;DHT22;37038;50.182;8.624;2024-03-08T04:57:00;1.50;99.90
51011;DHT22;37038;50.182;8.624;2024-03-08T04:59:57;1.50;9.10
51011;DHT22;37038;50.182;8.624;2024-03-08T05:02:49;1.60;1.00
51011;DHT22;37038;50.182;8.624;2024-03-08T05:05:44;1.60;99.90
51011;DHT22;37038;50.182;8.624;2024-03-08T05:08:38;1.60;99.90
51011;DHT22;37038;50.182;8.624;2024-03-08T05:11:26;1.70;99.90
51011;DHT22;37038;50.182;8.624;2024-03-08T05:14:18;1.50;1.00
51011;DHT22;37038;50.182;8.624;2024-03-08T05:17:14;1.40;1.00
51011;DHT22;37038;50.182;8.624;2024-03-08T05:20:09;1.30;99.90
51011;DHT22;37038;50.182;8.624;2024-03-08T05:23:00;1.20;99.90
51011;DHT22;37038;50.182;8.624;2024-03-08T05:25:53;1.10;99.90
51011;DHT22;37038;50.182;8.624;2024-03-08T05:28:41;1.00;99.90
51011;DHT22;37038;50.182;8.624;2024-03-08T05:31:57;1.10;1.00
51011;DHT22;37038;50.182;8.624;2024-03-08T05:34:50;1.00;99.90
51011;DHT22;37038;50.182;8.624;2024-03-08T05:37:43;1.00;99.90
51011;DHT22;37038;50.182;8.624;2024-03-08T05:40:31;0.90;99.90
51011;DHT22;37038;50.182;8.624;2024-03-08T05:43:27;1.00;1.00
51011;DHT22;37038;50.182;8.624;2024-03-08T05:46:15;1.00;1.00
51011;DHT22;37038;50.182;8.624;2024-03-08T05:49:06;0.90;99.90
51011;DHT22;37038;50.182;8.624;2024-03-08T05:51:59;0.80;1.00
51011;DHT22;37038;50.182;8.624;2024-03-08T05:54:55;0.80;1.00
51011;DHT22;37038;50.182;8.624;2024-03-08T05:57:45;0.80;1.00
51011;DHT22;37038;50.182;8.624;2024-03-08T06:00:42;1.00;1.00
51011;DHT22;37038;50.182;8.624;2024-03-08T06:03:37;1.10;99.90
51011;DHT22;37038;50.182;8.624;2024-03-08T06:06:36;1.10;99.90
51011;DHT22;37038;50.182;8.624;2024-03-08T06:09:25;1.00;99.90
51011;DHT22;37038;50.182;8.624;2024-03-08T06:12:16;1.20;1.00
51011;DHT22;37038;50.182;8.624;2024-03-08T06:15:14;1.20;99.90
51011;DHT22;37038;50.182;8.624;2024-03-08T06:18:09;1.30;13.60
51011;DHT22;37038;50.182;8.624;2024-03-08T06:21:23;1.40;1.00
51011;DHT22;37038;50.182;8.624;2024-03-08T06:24:21;1.40;1.00
51011;DHT22;37038;50.182;8.624;2024-03-08T06:27:23;1.50;99.90
51011;DHT22;37038;50.182;8.624;2024-03-08T06:30:11;1.50;1.00
51011;DHT22;37038;50.182;8.624;2024-03-08T06:33:32;1.70;99.90
51011;DHT22;37038;50.182;8.624;2024-03-08T06:36:30;1.80;99.90
51011;DHT22;37038;50.182;8.624;2024-03-08T06:46:04;2.50;1.00
51011;DHT22;37038;50.182;8.624;2024-03-08T06:52:19;3.20;53.40
51011;DHT22;37038;50.182;8.624;2024-03-08T06:55:37;3.40;99.90
51011;DHT22;37038;50.182;8.624;2024-03-08T06:58:34;4.10;1.00
51011;DHT22;37038;50.182;8.624;2024-03-08T07:01:25;4.40;1.00
51011;DHT22;37038;50.182;8.624;2024-03-08T07:04:28;4.40;1.00
51011;DHT22;37038;50.182;8.624;2024-03-08T07:07:45;5.00;99.90
51011;DHT22;37038;50.182;8.624;2024-03-08T07:10:50;5.70;1.00
51011;DHT22;37038;50.182;8.624;2024-03-08T07:13:41;5.80;1.00
51011;DHT22;37038;50.182;8.624;2024-03-08T07:16:58;6.20;1.00
51011;DHT22;37038;50.182;8.624;2024-03-08T07:20:01;5.50;1.00
51011;DHT22;37038;50.182;8.624;2024-03-08T07:23:18;5.40;1.00
51011;DHT22;37038;50.182;8.624;2024-03-08T07:26:28;6.00;1.00
51011;DHT22;37038;50.182;8.624;2024-03-08T07:33:36;6.00;99.90
51011;DHT22;37038;50.182;8.624;2024-03-08T07:36:46;6.20;99.90
51011;DHT22;37038;50.182;8.624;2024-03-08T07:43:29;6.50;99.90
51011;DHT22;37038;50.182;8.624;2024-03-08T07:46:28;6.60;99.90
51011;DHT22;37038;50.182;8.624;2024-03-08T07:49:32;6.80;99.90
51011;DHT22;37038;50.182;8.624;2024-03-08T07:52:45;7.20;99.90
51011;DHT22;37038;50.182;8.624;2024-03-08T07:56:13;7.50;99.90
51011;DHT22;37038;50.182;8.624;2024-03-08T07:59:41;7.20;99.90
51011;DHT22;37038;50.182;8.624;2024-03-08T08:02:43;7.20;99.90
51011;DHT22;37038;50.182;8.624;2024-03-08T08:05:35;7.30;99.90
51011;DHT22;37038;50.182;8.624;2024-03-08T08:08:26;7.40;99.90
51011;DHT22;37038;50.182;8.624;2024-03-08T08:11:22;7.80;99.90
51011;DHT22;37038;50.182;8.624;2024-03-08T08:14:18;8.20;99.90
51011;DHT22;37038;50.182;8.624;2024-03-08T08:17:23;8.60;99.90
51011;DHT22;37038;50.182;8.624;2024-03-08T08:20:29;8.50;99.90
51011;DHT22;37038;50.182;8.624;2024-03-08T08:27:56;8.60;99.90
51011;DHT22;37038;50.182;8.624;2024-03-08T08:30:53;8.80;99.90
51011;DHT22;37038;50.182;8.624;2024-03-08T08:33:59;8.20;99.90
51011;DHT22;37038;50.182;8.624;2024-03-08T08:40:56;8.40;99.90
51011;DHT22;37038;50.182;8.624;2024-03-08T08:52:08;8.90;99.90
51011;DHT22;37038;50.182;8.624;2024-03-08T08:55:15;9.70;99.90
51011;DHT22;37038;50.182;8.624;2024-03-08T08:58:27;9.90;99.90
51011;DHT22;37038;50.182;8.624;2024-03-08T09:01:41;8.10;99.90
51011;DHT22;37038;50.182;8.624;2024-03-08T09:13:03;10.10;34.10
51011;DHT22;37038;50.182;8.624;2024-03-08T09:17:00;9.60;99.80
51011;DHT22;37038;50.182;8.624;2024-03-08T09:20:38;9.90;22.90
51011;DHT22;37038;50.182;8.624;2024-03-08T09:23:47;10.10;23.00
51011;DHT22;37038;50.182;8.624;2024-03-08T09:26:45;9.90;1.00
51011;DHT22;37038;50.182;8.624;2024-03-08T09:29:39;9.00;1.00
51011;DHT22;37038;50.182;8.624;2024-03-08T09:32:46;9.90;1.00
51011;DHT22;37038;50.182;8.624;2024-03-08T09:36:06;9.90;1.00
51011;DHT22;37038;50.182;8.624;2024-03-08T09:39:01;10.30;1.00
51011;DHT22;37038;50.182;8.624;2024-03-08T09:41:59;9.40;1.00
51011;DHT22;37038;50.182;8.624;2024-03-08T09:48:50;10.20;1.00
51011;DHT22;37038;50.182;8.624;2024-03-08T09:51:55;11.00;1.00
51011;DHT22;37038;50.182;8.624;2024-03-08T09:55:26;10.80;1.00
51011;DHT22;37038;50.182;8.624;2024-03-08T10:02:16;10.90;1.00
51011;DHT22;37038;50.182;8.624;2024-03-08T10:05:49;11.40;1.00
51011;DHT22;37038;50.182;8.624;2024-03-08T10:17:08;11.70;1.00
51011;DHT22;37038;50.182;8.624;2024-03-08T10:24:31;13.10;1.00
51011;DHT22;37038;50.182;8.624;2024-03-08T10:31:45;12.50;1.00
51011;DHT22;37038;50.182;8.624;2024-03-08T10:35:14;13.50;1.00
51011;DHT22;37038;50.182;8.624;2024-03-08T10:47:11;14.90;1.00
51011;DHT22;37038;50.182;8.624;2024-03-08T10:50:21;15.40;99.90
51011;DHT22;37038;50.182;8.624;2024-03-08T10:53:40;14.40;99.90
51011;DHT22;37038;50.182;8.624;2024-03-08T10:56:36;12.50;99.90
51011;DHT22;37038;50.182;8.624;2024-03-08T10:59:47;14.30;99.90
51011;DHT22;37038;50.182;8.624;2024-03-08T11:02:43;13.40;99.90
51011;DHT22;37038;50.182;8.624;2024-03-08T11:05:48;14.20;99.90
51011;DHT22;37038;50.182;8.624;2024-03-08T11:08:39;13.30;99.90
51011;DHT22;37038;50.182;8.624;2024-03-08T11:11:48;14.30;99.90
51011;DHT22;37038;50.182;8.624;2024-03-08T11:14:53;13.60;99.90
51011;DHT22;37038;50.182;8.624;2024-03-08T11:17:48;13.10;99.90
51011;DHT22;37038;50.182;8.624;2024-03-08T11:20:37;13.30;99.90
51011;DHT22;37038;50.182;8.624;2024-03-08T11:23:31;14.10;99.90
51011;DHT22;37038;50.182;8.624;2024-03-08T11:26:27;13.50;99.90
51011;DHT22;37038;50.182;8.624;2024-03-08T11:32:20;12.90;99.90
51011;DHT22;37038;50.182;8.624;2024-03-08T11:35:22;12.90;99.90
51011;DHT22;37038;50.182;8.624;2024-03-08T11:38:40;12.60;99.90
51011;DHT22;37038;50.182;8.624;2024-03-08T11:41:38;13.10;99.90
51011;DHT22;37038;50.182;8.624;2024-03-08T11:44:54;14.20;99.90
51011;DHT22;37038;50.182;8.624;2024-03-08T11:47:54;15.40;99.90
51011;DHT22;37038;50.182;8.624;2024-03-08T11:50:45;15.60;99.90
51011;DHT22;37038;50.182;8.624;2024-03-08T11:53:38;14.40;99.90
51011;DHT22;37038;50.182;8.624;2024-03-08T11:56:34;14.40;99.90
51011;DHT22;37038;50.182;8.624;2024-03-08T12:03:36;15.40;99.90
51011;DHT22;37038;50.182;8.624;2024-03-08T12:11:19;14.90;99.90
51011;DHT22;37038;50.182;8.624;2024-03-08T12:15:02;14.90;99.90
51011;DHT22;37038;50.182;8.624;2024-03-08T12:18:39;15.70;99.90
51011;DHT22;37038;50.182;8.624;2024-03-08T12:22:21;14.90;99.90
51011;DHT22;37038;50.182;8.624;2024-03-08T12:29:59;16.50;99.90
51011;DHT22;37038;50.182;8.624;2024-03-08T12:33:25;15.50;99.90
51011;DHT22;37038;50.182;8.624;2024-03-08T12:36:55;16.10;99.90
51011;DHT22;37038;50.182;8.624;2024-03-08T12:40:13;16.00;99.90
51011;DHT22;37038;50.182;8.624;2024-03-08T12:43:46;16.20;99.90
51011;DHT22;37038;50.182;8.624;2024-03-08T12:47:16;14.00;99.90
51011;DHT22;37038;50.182;8.624;2024-03-08T12:50:56;14.10;99.90
51011;DHT22;37038;50.182;8.624;2024-03-08T12:54:34;15.70;99.90
51011;DHT22;37038;50.182;8.624;2024-03-08T12:58:06;17.50;99.90
51011;DHT22;37038;50.182;8.624;2024-03-08T13:05:47;16.50;99.90
51011;DHT22;37038;50.182;8.624;2024-03-08T13:12:50;15.40;99.90
51011;DHT22;37038;50.182;8.624;2024-03-08T13:20:07;17.80;99.90
51011;DHT22;37038;50.182;8.624;2024-03-08T13:23:43;16.20;99.90
51011;DHT22;37038;50.182;8.624;2024-03-08T13:35:25;15.90;99.90
51011;DHT22;37038;50.182;8.624;2024-03-08T13:39:08;15.50;99.90
51011;DHT22;37038;50.182;8.624;2024-03-08T13:46:57;15.10;99.90
51011;DHT22;37038;50.182;8.624;2024-03-08T13:59:05;15.10;99.90
51011;DHT22;37038;50.182;8.624;2024-03-08T14:06:59;16.90;99.90
51011;DHT22;37038;50.182;8.624;2024-03-08T14:10:46;17.40;99.90
51011;DHT22;37038;50.182;8.624;2024-03-08T14:14:51;16.20;99.90
51011;DHT22;37038;50.182;8.624;2024-03-08T14:18:40;16.80;99.90
51011;DHT22;37038;50.182;8.624;2024-03-08T14:52:06;16.30;99.90
51011;DHT22;37038;50.182;8.624;2024-03-08T14:56:09;17.90;99.90
51011;DHT22;37038;50.182;8.624;2024-03-08T15:03:48;15.50;99.90
51011;DHT22;37038;50.182;8.624;2024-03-08T15:11:22;15.60;99.90
51011;DHT22;37038;50.182;8.624;2024-03-08T15:15:14;15.40;99.90
51011;DHT22;37038;50.182;8.624;2024-03-08T15:24:06;17.80;99.90
51011;DHT22;37038;50.182;8.624;2024-03-08T15:27:31;16.50;99.90
51011;DHT22;37038;50.182;8.624;2024-03-08T15:42:27;15.80;99.90
51011;DHT22;37038;50.182;8.624;2024-03-08T16:15:57;15.00;99.90
51011;DHT22;37038;50.182;8.624;2024-03-08T16:19:18;15.20;99.90
51011;DHT22;37038;50.182;8.624;2024-03-08T16:22:44;15.60;99.90
51011;DHT22;37038;50.182;8.624;2024-03-08T16:32:13;14.80;99.90
51011;DHT22;37038;50.182;8.624;2024-03-08T16:35:14;14.00;99.90
51011;DHT22;37038;50.182;8.624;2024-03-08T16:38:32;13.80;99.90
51011;DHT22;37038;50.182;8.624;2024-03-08T16:42:13;13.60;99.90
51011;DHT22;37038;50.182;8.624;2024-03-08T16:45:18;13.40;99.90
51011;DHT22;37038;50.182;8.624;2024-03-08T16:49:04;13.00;99.90
51011;DHT22;37038;50.182;8.624;2024-03-08T16:52:27;12.10;99.90
51011;DHT22;37038;50.182;8.624;2024-03-08T16:58:53;11.30;99.90
51011;DHT22;37038;50.182;8.624;2024-03-08T17:05:35;11.00;99.90
51011;DHT22;37038;50.182;8.624;2024-03-08T17:17:37;10.30;99.90
51011;DHT22;37038;50.182;8.624;2024-03-08T17:21:44;10.20;99.90
51011;DHT22;37038;50.182;8.624;2024-03-08T17:24:59;10.20;99.90
51011;DHT22;37038;50.182;8.624;2024-03-08T17:31:17;10.00;99.90
51011;DHT22;37038;50.182;8.624;2024-03-08T17:34:28;9.90;99.90
51011;DHT22;37038;50.182;8.624;2024-03-08T17:37:40;9.70;99.90
51011;DHT22;37038;50.182;8.624;2024-03-08T17:45:11;9.50;99.90
51011;DHT22;37038;50.182;8.624;2024-03-08T17:48:04;9.30;99.90
51011;DHT22;37038;50.182;8.624;2024-03-08T17:51:00;9.20;99.90
51011;DHT22;37038;50.182;8.624;2024-03-08T17:54:02;9.20;99.90
51011;DHT22;37038;50.182;8.624;2024-03-08T17:57:20;9.20;99.90
51011;DHT22;37038;50.182;8.624;2024-03-08T18:00:35;9.10;1.00
51011;DHT22;37038;50.182;8.624;2024-03-08T18:12:02;8.90;1.00
51011;DHT22;37038;50.182;8.624;2024-03-08T18:15:58;8.80;1.00
51011;DHT22;37038;50.182;8.624;2024-03-08T18:25:41;8.70;1.00
51011;DHT22;37038;50.182;8.624;2024-03-08T18:28:47;8.70;1.00
51011;DHT22;37038;50.182;8.624;2024-03-08T18:32:00;8.60;1.00
51011;DHT22;37038;50.182;8.624;2024-03-08T18:39:09;8.50;1.00
51011;DHT22;37038;50.182;8.624;2024-03-08T18:55:37;7.80;1.00
51011;DHT22;37038;50.182;8.624;2024-03-08T18:59:17;7.70;1.00
51011;DHT22;37038;50.182;8.624;2024-03-08T19:02:44;7.60;1.00
51011;DHT22;37038;50.182;8.624;2024-03-08T19:10:03;7.40;1.00
51011;DHT22;37038;50.182;8.624;2024-03-08T19:13:18;7.30;1.00
51011;DHT22;37038;50.182;8.624;2024-03-08T19:16:12;7.10;95.60
51011;DHT22;37038;50.182;8.624;2024-03-08T19:19:17;7.10;99.90
51011;DHT22;37038;50.182;8.624;2024-03-08T19:22:14;7.00;99.90
51011;DHT22;37038;50.182;8.624;2024-03-08T19:25:29;7.00;99.90
51011;DHT22;37038;50.182;8.624;2024-03-08T19:28:53;6.80;99.90
51011;DHT22;37038;50.182;8.624;2024-03-08T19:31:58;6.70;99.90
51011;DHT22;37038;50.182;8.624;2024-03-08T19:35:04;6.60;99.90
51011;DHT22;37038;50.182;8.624;2024-03-08T19:38:11;6.70;99.90
51011;DHT22;37038;50.182;8.624;2024-03-08T19:41:11;6.80;99.90
51011;DHT22;37038;50.182;8.624;2024-03-08T19:44:16;7.00;99.90
51011;DHT22;37038;50.182;8.624;2024-03-08T19:47:36;6.90;93.10
51011;DHT22;37038;50.182;8.624;2024-03-08T19:51:15;6.80;99.90
51011;DHT22;37038;50.182;8.624;2024-03-08T19:54:29;6.80;99.90
51011;DHT22;37038;50.182;8.624;2024-03-08T20:01:26;6.80;99.90
51011;DHT22;37038;50.182;8.624;2024-03-08T20:04:25;6.60;99.90
51011;DHT22;37038;50.182;8.624;2024-03-08T20:11:07;6.50;99.90
51011;DHT22;37038;50.182;8.624;2024-03-08T20:14:14;6.50;99.90
51011;DHT22;37038;50.182;8.624;2024-03-08T20:17:11;6.30;99.90
51011;DHT22;37038;50.182;8.624;2024-03-08T20:24:27;6.20;99.90
51011;DHT22;37038;50.182;8.624;2024-03-08T20:27:32;6.20;99.90
51011;DHT22;37038;50.182;8.624;2024-03-08T20:30:42;6.10;99.90
51011;DHT22;37038;50.182;8.624;2024-03-08T20:33:55;6.10;99.90
51011;DHT22;37038;50.182;8.624;2024-03-08T20:37:06;6.00;99.90
51011;DHT22;37038;50.182;8.624;2024-03-08T20:40:08;6.00;1.00
51011;DHT22;37038;50.182;8.624;2024-03-08T20:43:11;5.90;1.00
51011;DHT22;37038;50.182;8.624;2024-03-08T20:46:27;5.90;1.00
51011;DHT22;37038;50.182;8.624;2024-03-08T20:49:58;5.90;99.90
51011;DHT22;37038;50.182;8.624;2024-03-08T21:34:27;5.10;1.00
51011;DHT22;37038;50.182;8.624;2024-03-08T21:38:04;5.00;1.00
51011;DHT22;37038;50.182;8.624;2024-03-08T21:41:14;5.00;1.00
51011;DHT22;37038;50.182;8.624;2024-03-08T21:44:14;5.00;19.00
51011;DHT22;37038;50.182;8.624;2024-03-08T21:47:15;5.00;22.50
51011;DHT22;37038;50.182;8.624;2024-03-08T21:50:40;5.10;1.00
51011;DHT22;37038;50.182;8.624;2024-03-08T21:53:46;5.10;1.00
51011;DHT22;37038;50.182;8.624;2024-03-08T21:56:34;5.00;99.90
51011;DHT22;37038;50.182;8.624;2024-03-08T21:59:36;5.10;97.90
51011;DHT22;37038;50.182;8.624;2024-03-08T22:02:58;5.10;30.00
51011;DHT22;37038;50.182;8.624;2024-03-08T22:05:54;4.90;88.00
51011;DHT22;37038;50.182;8.624;2024-03-08T22:09:01;5.00;99.90
51011;DHT22;37038;50.182;8.624;2024-03-08T22:12:07;4.90;82.70
51011;DHT22;37038;50.182;8.624;2024-03-08T22:15:03;4.80;87.10
51011;DHT22;37038;50.182;8.624;2024-03-08T22:18:07;4.60;99.90
51011;DHT22;37038;50.182;8.624;2024-03-08T22:21:16;4.50;1.00
51011;DHT22;37038;50.182;8.624;2024-03-08T22:24:26;4.50;1.00
51011;DHT22;37038;50.182;8.624;2024-03-08T22:27:46;4.50;1.00
51011;DHT22;37038;50.182;8.624;2024-03-08T22:30:44;4.50;1.00
51011;DHT22;37038;50.182;8.624;2024-03-08T22:33:52;4.40;1.00
51011;DHT22;37038;50.182;8.624;2024-03-08T22:36:46;4.50;1.00
51011;DHT22;37038;50.182;8.624;2024-03-08T22:39:44;4.50;1.00
51011;DHT22;37038;50.182;8.624;2024-03-08T22:45:28;4.40;1.00
51011;DHT22;37038;50.182;8.624;2024-03-08T22:48:25;4.50;1.00
51011;DHT22;37038;50.182;8.624;2024-03-08T22:51:33;4.30;1.00
51011;DHT22;37038;50.182;8.624;2024-03-08T22:54:25;4.20;99.90
51011;DHT22;37038;50.182;8.624;2024-03-08T22:57:27;4.40;10.70
51011;DHT22;37038;50.182;8.624;2024-03-08T23:00:23;4.10;99.90
51011;DHT22;37038;50.182;8.624;2024-03-08T23:03:26;3.90;99.90
51011;DHT22;37038;50.182;8.624;2024-03-08T23:06:21;4.00;99.90
51011;DHT22;37038;50.182;8.624;2024-03-08T23:13:06;4.20;99.90
51011;DHT22;37038;50.182;8.624;2024-03-08T23:15:57;4.40;99.90
51011;DHT22;37038;50.182;8.624;2024-03-08T23:22:29;4.50;1.00
51011;DHT22;37038;50.182;8.624;2024-03-08T23:25:40;4.20;1.00
51011;DHT22;37038;50.182;8.624;2024-03-08T23:28:52;4.20;1.00
51011;DHT22;37038;50.182;8.624;2024-03-08T23:35:13;4.00;1.00
51011;DHT22;37038;50.182;8.624;2024-03-08T23:38:22;3.90;99.90
51011;DHT22;37038;50.182;8.624;2024-03-08T23:41:22;3.60;99.90
51011;DHT22;37038;50.182;8.624;2024-03-08T23:44:27;3.60;99.90
51011;DHT22;37038;50.182;8.624;2024-03-08T23:47:22;3.80;99.90
51011;DHT22;37038;50.182;8.624;2024-03-08T23:53:26;3.80;99.90
51011;DHT22;37038;50.182;8.624;2024-03-08T23:56:27;3.80;99.90
51011;DHT22;37038;50.182;8.624;2024-03-08T23:59:25;3.40;99.90
